sensor_id;sensor_type;location;lat;lon;timestamp;P1;durP1;ratioP1;P2;durP2;ratioP2
28335;SDS011;15592;53.656;7.276;2022-08-30T00:00:25;1.55;;;1.10;;
28335;SDS011;15592;53.656;7.276;2022-08-30T00:03:10;1.63;;;1.25;;
28335;SDS011;15592;53.656;7.276;2022-08-30T00:05:38;1.40;;;1.20;;
28335;SDS011;15592;53.656;7.276;2022-08-30T00:08:04;1.13;;;0.90;;
28335;SDS011;15592;53.656;7.276;2022-08-30T00:10:30;1.10;;;1.00;;
28335;SDS011;15592;53.656;7.276;2022-08-30T00:12:57;1.50;;;1.17;;
28335;SDS011;15592;53.656;7.276;2022-08-30T00:15:24;2.83;;;1.20;;
28335;SDS011;15592;53.656;7.276;2022-08-30T00:17:51;1.33;;;1.00;;
28335;SDS011;15592;53.656;7.276;2022-08-30T00:20:19;1.20;;;1.10;;
28335;SDS011;15592;53.656;7.276;2022-08-30T00:22:48;2.78;;;1.05;;
28335;SDS011;15592;53.656;7.276;2022-08-30T00:25:14;1.17;;;1.08;;
28335;SDS011;15592;53.656;7.276;2022-08-30T00:27:41;1.20;;;1.10;;
28335;SDS011;15592;53.656;7.276;2022-08-30T00:30:07;1.55;;;1.20;;
28335;SDS011;15592;53.656;7.276;2022-08-30T00:32:34;1.25;;;1.13;;
28335;SDS011;15592;53.656;7.276;2022-08-30T00:35:00;1.30;;;1.15;;
28335;SDS011;15592;53.656;7.276;2022-08-30T00:37:26;1.10;;;1.00;;
28335;SDS011;15592;53.656;7.276;2022-08-30T00:39:51;1.45;;;1.08;;
28335;SDS011;15592;53.656;7.276;2022-08-30T00:42:18;1.23;;;1.10;;
28335;SDS011;15592;53.656;7.276;2022-08-30T00:44:44;1.20;;;1.10;;
28335;SDS011;15592;53.656;7.276;2022-08-30T00:47:11;1.40;;;1.10;;
28335;SDS011;15592;53.656;7.276;2022-08-30T00:49:37;1.17;;;0.93;;
28335;SDS011;15592;53.656;7.276;2022-08-30T00:52:05;1.67;;;0.93;;
28335;SDS011;15592;53.656;7.276;2022-08-30T00:54:31;1.48;;;1.10;;
28335;SDS011;15592;53.656;7.276;2022-08-30T00:57:00;1.27;;;1.02;;
28335;SDS011;15592;53.656;7.276;2022-08-30T00:59:27;1.33;;;1.10;;
28335;SDS011;15592;53.656;7.276;2022-08-30T01:01:53;1.00;;;0.90;;
28335;SDS011;15592;53.656;7.276;2022-08-30T01:04:20;0.70;;;0.70;;
28335;SDS011;15592;53.656;7.276;2022-08-30T01:06:49;1.08;;;0.98;;
28335;SDS011;15592;53.656;7.276;2022-08-30T01:09:15;1.05;;;0.95;;
28335;SDS011;15592;53.656;7.276;2022-08-30T01:11:42;1.27;;;0.98;;
28335;SDS011;15592;53.656;7.276;2022-08-30T01:14:10;1.10;;;1.00;;
28335;SDS011;15592;53.656;7.276;2022-08-30T01:16:36;1.00;;;0.90;;
28335;SDS011;15592;53.656;7.276;2022-08-30T01:19:04;0.93;;;0.80;;
28335;SDS011;15592;53.656;7.276;2022-08-30T01:21:56;1.30;;;1.20;;
28335;SDS011;15592;53.656;7.276;2022-08-30T01:24:27;0.70;;;0.70;;
28335;SDS011;15592;53.656;7.276;2022-08-30T01:26:53;0.80;;;0.80;;
28335;SDS011;15592;53.656;7.276;2022-08-30T01:29:20;0.98;;;0.90;;
28335;SDS011;15592;53.656;7.276;2022-08-30T01:31:48;1.08;;;0.98;;
28335;SDS011;15592;53.656;7.276;2022-08-30T01:34:14;1.33;;;1.00;;
28335;SDS011;15592;53.656;7.276;2022-08-30T01:36:41;1.52;;;1.00;;
28335;SDS011;15592;53.656;7.276;2022-08-30T01:39:08;0.93;;;0.82;;
28335;SDS011;15592;53.656;7.276;2022-08-30T01:41:35;1.08;;;0.98;;
28335;SDS011;15592;53.656;7.276;2022-08-30T01:44:06;1.00;;;0.90;;
28335;SDS011;15592;53.656;7.276;2022-08-30T01:46:35;0.80;;;0.80;;
28335;SDS011;15592;53.656;7.276;2022-08-30T01:49:05;0.90;;;0.90;;
28335;SDS011;15592;53.656;7.276;2022-08-30T01:51:32;1.05;;;0.95;;
28335;SDS011;15592;53.656;7.276;2022-08-30T01:53:58;1.23;;;0.80;;
28335;SDS011;15592;53.656;7.276;2022-08-30T01:56:24;1.15;;;0.93;;
28335;SDS011;15592;53.656;7.276;2022-08-30T01:58:52;2.05;;;1.00;;
28335;SDS011;15592;53.656;7.276;2022-08-30T02:01:19;1.13;;;1.02;;
28335;SDS011;15592;53.656;7.276;2022-08-30T02:03:47;2.00;;;1.20;;
28335;SDS011;15592;53.656;7.276;2022-08-30T02:06:14;1.30;;;1.20;;
28335;SDS011;15592;53.656;7.276;2022-08-30T02:08:42;1.77;;;1.17;;
28335;SDS011;15592;53.656;7.276;2022-08-30T02:11:08;1.98;;;1.38;;
28335;SDS011;15592;53.656;7.276;2022-08-30T02:13:35;1.30;;;0.93;;
28335;SDS011;15592;53.656;7.276;2022-08-30T02:16:02;1.67;;;1.10;;
28335;SDS011;15592;53.656;7.276;2022-08-30T02:18:31;1.65;;;1.20;;
28335;SDS011;15592;53.656;7.276;2022-08-30T02:20:57;0.80;;;0.80;;
28335;SDS011;15592;53.656;7.276;2022-08-30T02:23:22;0.85;;;0.75;;
28335;SDS011;15592;53.656;7.276;2022-08-30T02:25:48;1.38;;;1.10;;
28335;SDS011;15592;53.656;7.276;2022-08-30T02:28:13;1.48;;;1.05;;
28335;SDS011;15592;53.656;7.276;2022-08-30T02:30:40;1.00;;;1.00;;
28335;SDS011;15592;53.656;7.276;2022-08-30T02:33:06;1.30;;;1.13;;
28335;SDS011;15592;53.656;7.276;2022-08-30T02:35:32;1.10;;;1.00;;
28335;SDS011;15592;53.656;7.276;2022-08-30T02:37:58;1.15;;;1.00;;
28335;SDS011;15592;53.656;7.276;2022-08-30T02:40:23;1.10;;;1.00;;
28335;SDS011;15592;53.656;7.276;2022-08-30T02:42:49;1.50;;;1.40;;
28335;SDS011;15592;53.656;7.276;2022-08-30T02:45:15;1.17;;;1.08;;
28335;SDS011;15592;53.656;7.276;2022-08-30T02:47:41;1.10;;;1.00;;
28335;SDS011;15592;53.656;7.276;2022-08-30T02:50:07;1.00;;;0.80;;
28335;SDS011;15592;53.656;7.276;2022-08-30T02:52:34;1.40;;;1.20;;
28335;SDS011;15592;53.656;7.276;2022-08-30T02:55:01;1.35;;;0.93;;
28335;SDS011;15592;53.656;7.276;2022-08-30T02:57:27;1.05;;;0.95;;
28335;SDS011;15592;53.656;7.276;2022-08-30T02:59:53;0.73;;;0.73;;
28335;SDS011;15592;53.656;7.276;2022-08-30T03:02:19;1.20;;;0.90;;
28335;SDS011;15592;53.656;7.276;2022-08-30T03:04:46;1.05;;;0.93;;
28335;SDS011;15592;53.656;7.276;2022-08-30T03:07:13;0.90;;;0.90;;
28335;SDS011;15592;53.656;7.276;2022-08-30T03:09:38;0.80;;;0.80;;
28335;SDS011;15592;53.656;7.276;2022-08-30T03:12:05;0.98;;;0.90;;
28335;SDS011;15592;53.656;7.276;2022-08-30T03:14:32;0.85;;;0.85;;
28335;SDS011;15592;53.656;7.276;2022-08-30T03:17:00;0.85;;;0.82;;
28335;SDS011;15592;53.656;7.276;2022-08-30T03:19:27;1.08;;;0.93;;
28335;SDS011;15592;53.656;7.276;2022-08-30T03:21:52;1.10;;;1.00;;
28335;SDS011;15592;53.656;7.276;2022-08-30T03:24:18;0.70;;;0.70;;
28335;SDS011;15592;53.656;7.276;2022-08-30T03:26:44;0.80;;;0.80;;
28335;SDS011;15592;53.656;7.276;2022-08-30T03:29:10;0.90;;;0.88;;
28335;SDS011;15592;53.656;7.276;2022-08-30T03:31:36;0.90;;;0.90;;
28335;SDS011;15592;53.656;7.276;2022-08-30T03:34:02;0.80;;;0.80;;
28335;SDS011;15592;53.656;7.276;2022-08-30T03:36:29;0.95;;;0.93;;
28335;SDS011;15592;53.656;7.276;2022-08-30T03:38:55;0.90;;;0.90;;
28335;SDS011;15592;53.656;7.276;2022-08-30T03:41:21;1.13;;;1.00;;
28335;SDS011;15592;53.656;7.276;2022-08-30T03:43:48;1.00;;;0.90;;
28335;SDS011;15592;53.656;7.276;2022-08-30T03:46:14;1.15;;;1.05;;
28335;SDS011;15592;53.656;7.276;2022-08-30T03:48:40;1.13;;;1.00;;
28335;SDS011;15592;53.656;7.276;2022-08-30T03:51:06;2.05;;;1.30;;
28335;SDS011;15592;53.656;7.276;2022-08-30T03:53:32;1.75;;;1.20;;
28335;SDS011;15592;53.656;7.276;2022-08-30T03:55:58;1.30;;;1.20;;
28335;SDS011;15592;53.656;7.276;2022-08-30T03:58:23;1.10;;;1.00;;
28335;SDS011;15592;53.656;7.276;2022-08-30T04:00:49;1.20;;;1.00;;
28335;SDS011;15592;53.656;7.276;2022-08-30T04:03:15;2.00;;;1.40;;
28335;SDS011;15592;53.656;7.276;2022-08-30T04:05:42;2.22;;;1.08;;
28335;SDS011;15592;53.656;7.276;2022-08-30T04:08:08;0.95;;;0.70;;
28335;SDS011;15592;53.656;7.276;2022-08-30T04:10:33;0.90;;;0.90;;
28335;SDS011;15592;53.656;7.276;2022-08-30T04:12:59;0.93;;;0.90;;
28335;SDS011;15592;53.656;7.276;2022-08-30T04:15:25;0.90;;;0.77;;
28335;SDS011;15592;53.656;7.276;2022-08-30T04:17:50;1.20;;;1.10;;
28335;SDS011;15592;53.656;7.276;2022-08-30T04:20:17;1.27;;;1.08;;
28335;SDS011;15592;53.656;7.276;2022-08-30T04:22:43;1.55;;;1.10;;
28335;SDS011;15592;53.656;7.276;2022-08-30T04:25:09;1.40;;;1.10;;
28335;SDS011;15592;53.656;7.276;2022-08-30T04:27:35;1.40;;;1.15;;
28335;SDS011;15592;53.656;7.276;2022-08-30T04:30:01;1.40;;;1.20;;
28335;SDS011;15592;53.656;7.276;2022-08-30T04:32:28;2.00;;;1.40;;
28335;SDS011;15592;53.656;7.276;2022-08-30T04:34:56;1.70;;;1.20;;
28335;SDS011;15592;53.656;7.276;2022-08-30T04:37:23;1.38;;;1.23;;
28335;SDS011;15592;53.656;7.276;2022-08-30T04:39:49;2.25;;;1.52;;
28335;SDS011;15592;53.656;7.276;2022-08-30T04:42:18;1.95;;;1.50;;
28335;SDS011;15592;53.656;7.276;2022-08-30T04:44:44;1.83;;;1.40;;
28335;SDS011;15592;53.656;7.276;2022-08-30T04:47:10;1.88;;;1.50;;
28335;SDS011;15592;53.656;7.276;2022-08-30T04:49:35;1.48;;;1.30;;
28335;SDS011;15592;53.656;7.276;2022-08-30T04:52:01;3.33;;;1.70;;
28335;SDS011;15592;53.656;7.276;2022-08-30T04:54:27;2.50;;;1.50;;
28335;SDS011;15592;53.656;7.276;2022-08-30T04:56:53;3.22;;;1.60;;
28335;SDS011;15592;53.656;7.276;2022-08-30T04:59:18;2.08;;;1.55;;
28335;SDS011;15592;53.656;7.276;2022-08-30T05:01:44;1.65;;;1.30;;
28335;SDS011;15592;53.656;7.276;2022-08-30T05:04:10;1.80;;;1.50;;
28335;SDS011;15592;53.656;7.276;2022-08-30T05:06:35;1.65;;;1.45;;
28335;SDS011;15592;53.656;7.276;2022-08-30T05:09:01;1.73;;;1.40;;
28335;SDS011;15592;53.656;7.276;2022-08-30T05:11:27;1.85;;;1.50;;
28335;SDS011;15592;53.656;7.276;2022-08-30T05:13:54;1.25;;;1.08;;
28335;SDS011;15592;53.656;7.276;2022-08-30T05:16:19;1.27;;;1.17;;
28335;SDS011;15592;53.656;7.276;2022-08-30T05:18:46;1.30;;;1.20;;
28335;SDS011;15592;53.656;7.276;2022-08-30T05:21:17;1.73;;;1.17;;
28335;SDS011;15592;53.656;7.276;2022-08-30T05:23:45;1.40;;;1.30;;
28335;SDS011;15592;53.656;7.276;2022-08-30T05:26:15;1.45;;;1.27;;
28335;SDS011;15592;53.656;7.276;2022-08-30T05:28:46;1.20;;;1.10;;
28335;SDS011;15592;53.656;7.276;2022-08-30T05:31:22;1.38;;;1.05;;
28335;SDS011;15592;53.656;7.276;2022-08-30T05:33:51;1.17;;;1.00;;
28335;SDS011;15592;53.656;7.276;2022-08-30T05:36:19;1.10;;;1.00;;
28335;SDS011;15592;53.656;7.276;2022-08-30T05:38:46;1.33;;;1.13;;
28335;SDS011;15592;53.656;7.276;2022-08-30T05:41:12;1.30;;;1.20;;
28335;SDS011;15592;53.656;7.276;2022-08-30T05:43:38;1.80;;;1.33;;
28335;SDS011;15592;53.656;7.276;2022-08-30T05:46:05;1.35;;;1.25;;
28335;SDS011;15592;53.656;7.276;2022-08-30T05:48:37;1.45;;;1.27;;
28335;SDS011;15592;53.656;7.276;2022-08-30T05:51:08;1.88;;;1.58;;
28335;SDS011;15592;53.656;7.276;2022-08-30T05:53:36;1.30;;;1.20;;
28335;SDS011;15592;53.656;7.276;2022-08-30T05:56:03;1.83;;;1.40;;
28335;SDS011;15592;53.656;7.276;2022-08-30T05:58:30;1.90;;;1.63;;
28335;SDS011;15592;53.656;7.276;2022-08-30T06:00:56;1.30;;;1.17;;
28335;SDS011;15592;53.656;7.276;2022-08-30T06:03:22;1.33;;;1.20;;
28335;SDS011;15592;53.656;7.276;2022-08-30T06:05:48;1.30;;;1.20;;
28335;SDS011;15592;53.656;7.276;2022-08-30T06:08:14;0.90;;;0.90;;
28335;SDS011;15592;53.656;7.276;2022-08-30T06:10:39;1.17;;;0.98;;
28335;SDS011;15592;53.656;7.276;2022-08-30T06:13:05;1.13;;;1.00;;
28335;SDS011;15592;53.656;7.276;2022-08-30T06:15:30;1.27;;;1.17;;
28335;SDS011;15592;53.656;7.276;2022-08-30T06:17:56;2.00;;;1.10;;
28335;SDS011;15592;53.656;7.276;2022-08-30T06:20:22;1.30;;;1.02;;
28335;SDS011;15592;53.656;7.276;2022-08-30T06:22:48;1.27;;;1.02;;
28335;SDS011;15592;53.656;7.276;2022-08-30T06:25:14;1.20;;;1.10;;
28335;SDS011;15592;53.656;7.276;2022-08-30T06:27:40;1.30;;;0.90;;
28335;SDS011;15592;53.656;7.276;2022-08-30T06:30:07;1.60;;;1.20;;
28335;SDS011;15592;53.656;7.276;2022-08-30T06:32:34;1.50;;;1.17;;
28335;SDS011;15592;53.656;7.276;2022-08-30T06:35:01;1.73;;;1.40;;
28335;SDS011;15592;53.656;7.276;2022-08-30T06:37:27;1.65;;;1.50;;
28335;SDS011;15592;53.656;7.276;2022-08-30T06:39:53;3.05;;;1.52;;
28335;SDS011;15592;53.656;7.276;2022-08-30T06:42:21;1.90;;;1.50;;
28335;SDS011;15592;53.656;7.276;2022-08-30T06:44:47;2.08;;;1.52;;
28335;SDS011;15592;53.656;7.276;2022-08-30T06:47:13;1.92;;;1.40;;
28335;SDS011;15592;53.656;7.276;2022-08-30T06:49:38;2.63;;;1.45;;
28335;SDS011;15592;53.656;7.276;2022-08-30T06:52:04;4.93;;;1.83;;
28335;SDS011;15592;53.656;7.276;2022-08-30T06:54:30;3.90;;;1.70;;
28335;SDS011;15592;53.656;7.276;2022-08-30T06:56:56;1.65;;;1.33;;
28335;SDS011;15592;53.656;7.276;2022-08-30T06:59:21;2.03;;;1.35;;
28335;SDS011;15592;53.656;7.276;2022-08-30T07:01:47;1.60;;;1.25;;
28335;SDS011;15592;53.656;7.276;2022-08-30T07:04:13;2.17;;;1.30;;
28335;SDS011;15592;53.656;7.276;2022-08-30T07:06:38;4.00;;;1.60;;
28335;SDS011;15592;53.656;7.276;2022-08-30T07:09:04;1.77;;;1.10;;
28335;SDS011;15592;53.656;7.276;2022-08-30T07:11:34;2.03;;;1.27;;
28335;SDS011;15592;53.656;7.276;2022-08-30T07:14:01;2.67;;;1.50;;
28335;SDS011;15592;53.656;7.276;2022-08-30T07:16:27;2.70;;;1.30;;
28335;SDS011;15592;53.656;7.276;2022-08-30T07:18:53;2.88;;;1.17;;
28335;SDS011;15592;53.656;7.276;2022-08-30T07:21:21;2.58;;;1.23;;
28335;SDS011;15592;53.656;7.276;2022-08-30T07:24:13;2.50;;;1.20;;
28335;SDS011;15592;53.656;7.276;2022-08-30T07:26:42;2.53;;;1.25;;
28335;SDS011;15592;53.656;7.276;2022-08-30T07:29:14;1.90;;;1.05;;
28335;SDS011;15592;53.656;7.276;2022-08-30T07:31:41;2.67;;;1.23;;
28335;SDS011;15592;53.656;7.276;2022-08-30T07:34:07;3.40;;;1.30;;
28335;SDS011;15592;53.656;7.276;2022-08-30T07:36:33;3.50;;;1.13;;
28335;SDS011;15592;53.656;7.276;2022-08-30T07:39:00;2.60;;;1.20;;
28335;SDS011;15592;53.656;7.276;2022-08-30T07:41:27;2.33;;;1.15;;
28335;SDS011;15592;53.656;7.276;2022-08-30T07:43:55;1.42;;;1.00;;
28335;SDS011;15592;53.656;7.276;2022-08-30T07:46:21;2.25;;;1.20;;
28335;SDS011;15592;53.656;7.276;2022-08-30T07:48:48;3.22;;;1.27;;
28335;SDS011;15592;53.656;7.276;2022-08-30T07:51:15;2.80;;;1.60;;
28335;SDS011;15592;53.656;7.276;2022-08-30T07:53:44;2.20;;;1.05;;
28335;SDS011;15592;53.656;7.276;2022-08-30T07:56:10;2.47;;;1.17;;
28335;SDS011;15592;53.656;7.276;2022-08-30T07:58:36;1.30;;;1.08;;
28335;SDS011;15592;53.656;7.276;2022-08-30T08:01:04;2.22;;;1.30;;
28335;SDS011;15592;53.656;7.276;2022-08-30T08:03:32;1.55;;;0.90;;
28335;SDS011;15592;53.656;7.276;2022-08-30T08:05:59;2.97;;;1.20;;
28335;SDS011;15592;53.656;7.276;2022-08-30T08:08:29;1.48;;;0.90;;
28335;SDS011;15592;53.656;7.276;2022-08-30T08:10:55;3.78;;;1.27;;
28335;SDS011;15592;53.656;7.276;2022-08-30T08:13:21;2.42;;;1.20;;
28335;SDS011;15592;53.656;7.276;2022-08-30T08:15:47;1.75;;;1.20;;
28335;SDS011;15592;53.656;7.276;2022-08-30T08:18:13;1.88;;;1.13;;
28335;SDS011;15592;53.656;7.276;2022-08-30T08:20:39;3.05;;;1.02;;
28335;SDS011;15592;53.656;7.276;2022-08-30T08:23:05;2.45;;;1.25;;
28335;SDS011;15592;53.656;7.276;2022-08-30T08:25:31;3.55;;;1.45;;
28335;SDS011;15592;53.656;7.276;2022-08-30T08:27:57;1.88;;;1.23;;
28335;SDS011;15592;53.656;7.276;2022-08-30T08:30:23;2.60;;;1.30;;
28335;SDS011;15592;53.656;7.276;2022-08-30T08:32:49;2.08;;;1.23;;
28335;SDS011;15592;53.656;7.276;2022-08-30T08:35:15;2.35;;;1.40;;
28335;SDS011;15592;53.656;7.276;2022-08-30T08:37:41;2.00;;;1.23;;
28335;SDS011;15592;53.656;7.276;2022-08-30T08:40:08;2.42;;;1.30;;
28335;SDS011;15592;53.656;7.276;2022-08-30T08:42:58;2.92;;;1.17;;
28335;SDS011;15592;53.656;7.276;2022-08-30T08:45:46;1.10;;;0.88;;
28335;SDS011;15592;53.656;7.276;2022-08-30T08:48:47;2.85;;;1.15;;
28335;SDS011;15592;53.656;7.276;2022-08-30T08:51:17;1.45;;;1.00;;
28335;SDS011;15592;53.656;7.276;2022-08-30T08:54:05;2.75;;;1.10;;
28335;SDS011;15592;53.656;7.276;2022-08-30T08:56:35;1.73;;;1.27;;
28335;SDS011;15592;53.656;7.276;2022-08-30T08:59:02;2.97;;;1.35;;
28335;SDS011;15592;53.656;7.276;2022-08-30T09:01:30;2.17;;;1.30;;
28335;SDS011;15592;53.656;7.276;2022-08-30T09:03:58;1.23;;;1.00;;
28335;SDS011;15592;53.656;7.276;2022-08-30T09:09:21;2.13;;;1.27;;
28335;SDS011;15592;53.656;7.276;2022-08-30T09:11:55;2.45;;;1.42;;
28335;SDS011;15592;53.656;7.276;2022-08-30T09:14:22;2.13;;;1.20;;
28335;SDS011;15592;53.656;7.276;2022-08-30T09:16:58;2.28;;;1.10;;
28335;SDS011;15592;53.656;7.276;2022-08-30T09:22:34;2.00;;;1.20;;
28335;SDS011;15592;53.656;7.276;2022-08-30T09:27:34;1.35;;;1.08;;
28335;SDS011;15592;53.656;7.276;2022-08-30T09:30:25;1.70;;;1.10;;
28335;SDS011;15592;53.656;7.276;2022-08-30T09:32:54;2.28;;;1.10;;
28335;SDS011;15592;53.656;7.276;2022-08-30T09:35:22;1.73;;;1.23;;
28335;SDS011;15592;53.656;7.276;2022-08-30T09:37:55;2.35;;;1.40;;
28335;SDS011;15592;53.656;7.276;2022-08-30T09:43:46;2.38;;;1.25;;
28335;SDS011;15592;53.656;7.276;2022-08-30T09:46:43;1.35;;;1.10;;
28335;SDS011;15592;53.656;7.276;2022-08-30T09:51:54;2.53;;;1.30;;
28335;SDS011;15592;53.656;7.276;2022-08-30T09:54:52;2.47;;;1.40;;
28335;SDS011;15592;53.656;7.276;2022-08-30T10:00:14;2.63;;;1.15;;
28335;SDS011;15592;53.656;7.276;2022-08-30T10:05:55;2.92;;;1.30;;
28335;SDS011;15592;53.656;7.276;2022-08-30T10:11:35;3.20;;;1.25;;
28335;SDS011;15592;53.656;7.276;2022-08-30T10:23:08;2.42;;;1.00;;
28335;SDS011;15592;53.656;7.276;2022-08-30T10:25:54;2.05;;;1.30;;
28335;SDS011;15592;53.656;7.276;2022-08-30T10:28:42;3.30;;;1.02;;
28335;SDS011;15592;53.656;7.276;2022-08-30T10:34:15;2.20;;;1.05;;
28335;SDS011;15592;53.656;7.276;2022-08-30T10:36:51;2.35;;;1.17;;
28335;SDS011;15592;53.656;7.276;2022-08-30T10:39:25;2.65;;;1.55;;
28335;SDS011;15592;53.656;7.276;2022-08-30T10:42:03;1.85;;;1.10;;
28335;SDS011;15592;53.656;7.276;2022-08-30T10:44:40;1.27;;;1.08;;
28335;SDS011;15592;53.656;7.276;2022-08-30T10:47:18;2.08;;;1.38;;
28335;SDS011;15592;53.656;7.276;2022-08-30T10:49:54;2.65;;;1.30;;
28335;SDS011;15592;53.656;7.276;2022-08-30T10:55:16;2.33;;;1.35;;
28335;SDS011;15592;53.656;7.276;2022-08-30T10:57:46;3.38;;;1.50;;
28335;SDS011;15592;53.656;7.276;2022-08-30T11:00:21;1.90;;;1.13;;
28335;SDS011;15592;53.656;7.276;2022-08-30T11:02:57;2.80;;;1.33;;
28335;SDS011;15592;53.656;7.276;2022-08-30T11:11:23;1.80;;;1.38;;
28335;SDS011;15592;53.656;7.276;2022-08-30T11:14:05;2.97;;;1.50;;
28335;SDS011;15592;53.656;7.276;2022-08-30T11:16:43;2.40;;;1.52;;
28335;SDS011;15592;53.656;7.276;2022-08-30T11:21:49;1.92;;;1.35;;
28335;SDS011;15592;53.656;7.276;2022-08-30T11:24:16;2.88;;;1.15;;
28335;SDS011;15592;53.656;7.276;2022-08-30T11:32:01;2.05;;;1.17;;
28335;SDS011;15592;53.656;7.276;2022-08-30T11:34:52;1.40;;;0.90;;
28335;SDS011;15592;53.656;7.276;2022-08-30T11:42:49;2.35;;;1.05;;
28335;SDS011;15592;53.656;7.276;2022-08-30T11:47:50;1.83;;;1.00;;
28335;SDS011;15592;53.656;7.276;2022-08-30T12:01:17;3.65;;;1.27;;
28335;SDS011;15592;53.656;7.276;2022-08-30T12:09:04;2.42;;;1.13;;
28335;SDS011;15592;53.656;7.276;2022-08-30T12:13:57;2.53;;;1.15;;
28335;SDS011;15592;53.656;7.276;2022-08-30T12:16:44;2.45;;;1.17;;
28335;SDS011;15592;53.656;7.276;2022-08-30T12:19:30;1.33;;;1.10;;
28335;SDS011;15592;53.656;7.276;2022-08-30T12:22:00;1.77;;;1.17;;
28335;SDS011;15592;53.656;7.276;2022-08-30T12:30:06;1.77;;;1.10;;
28335;SDS011;15592;53.656;7.276;2022-08-30T12:32:33;1.42;;;1.23;;
28335;SDS011;15592;53.656;7.276;2022-08-30T12:35:15;1.77;;;1.20;;
28335;SDS011;15592;53.656;7.276;2022-08-30T12:37:53;1.38;;;1.02;;
28335;SDS011;15592;53.656;7.276;2022-08-30T12:40:25;2.17;;;1.40;;
28335;SDS011;15592;53.656;7.276;2022-08-30T12:42:55;1.45;;;1.20;;
28335;SDS011;15592;53.656;7.276;2022-08-30T12:45:25;1.17;;;1.08;;
28335;SDS011;15592;53.656;7.276;2022-08-30T12:48:05;1.40;;;1.10;;
28335;SDS011;15592;53.656;7.276;2022-08-30T12:50:36;1.00;;;0.90;;
28335;SDS011;15592;53.656;7.276;2022-08-30T12:53:20;1.23;;;1.00;;
28335;SDS011;15592;53.656;7.276;2022-08-30T12:55:54;2.58;;;1.30;;
28335;SDS011;15592;53.656;7.276;2022-08-30T13:03:59;2.40;;;1.20;;
28335;SDS011;15592;53.656;7.276;2022-08-30T13:09:25;2.25;;;1.30;;
28335;SDS011;15592;53.656;7.276;2022-08-30T13:12:00;1.40;;;1.08;;
28335;SDS011;15592;53.656;7.276;2022-08-30T13:17:09;1.83;;;1.23;;
28335;SDS011;15592;53.656;7.276;2022-08-30T13:19:36;2.72;;;1.40;;
28335;SDS011;15592;53.656;7.276;2022-08-30T13:24:31;1.77;;;1.48;;
28335;SDS011;15592;53.656;7.276;2022-08-30T13:26:58;1.10;;;0.95;;
28335;SDS011;15592;53.656;7.276;2022-08-30T13:29:30;2.78;;;1.38;;
28335;SDS011;15592;53.656;7.276;2022-08-30T13:31:56;3.67;;;1.50;;
28335;SDS011;15592;53.656;7.276;2022-08-30T13:34:21;2.58;;;1.30;;
28335;SDS011;15592;53.656;7.276;2022-08-30T13:36:52;4.45;;;1.60;;
28335;SDS011;15592;53.656;7.276;2022-08-30T13:39:19;1.77;;;1.40;;
28335;SDS011;15592;53.656;7.276;2022-08-30T13:41:45;2.25;;;1.23;;
28335;SDS011;15592;53.656;7.276;2022-08-30T13:44:11;2.95;;;1.27;;
28335;SDS011;15592;53.656;7.276;2022-08-30T13:46:40;3.33;;;1.30;;
28335;SDS011;15592;53.656;7.276;2022-08-30T13:49:11;1.55;;;1.20;;
28335;SDS011;15592;53.656;7.276;2022-08-30T13:51:44;1.45;;;1.10;;
28335;SDS011;15592;53.656;7.276;2022-08-30T13:54:12;1.90;;;1.10;;
28335;SDS011;15592;53.656;7.276;2022-08-30T13:56:38;3.03;;;1.50;;
28335;SDS011;15592;53.656;7.276;2022-08-30T13:59:04;4.63;;;1.17;;
28335;SDS011;15592;53.656;7.276;2022-08-30T14:01:29;3.15;;;1.30;;
28335;SDS011;15592;53.656;7.276;2022-08-30T14:03:55;3.33;;;1.50;;
28335;SDS011;15592;53.656;7.276;2022-08-30T14:06:20;3.38;;;1.88;;
28335;SDS011;15592;53.656;7.276;2022-08-30T14:08:46;3.80;;;1.70;;
28335;SDS011;15592;53.656;7.276;2022-08-30T14:11:12;4.38;;;1.98;;
28335;SDS011;15592;53.656;7.276;2022-08-30T14:13:40;3.15;;;1.80;;
28335;SDS011;15592;53.656;7.276;2022-08-30T14:16:09;2.87;;;1.57;;
28335;SDS011;15592;53.656;7.276;2022-08-30T14:18:35;6.15;;;2.50;;
28335;SDS011;15592;53.656;7.276;2022-08-30T14:21:01;4.47;;;2.05;;
28335;SDS011;15592;53.656;7.276;2022-08-30T14:23:26;3.72;;;1.80;;
28335;SDS011;15592;53.656;7.276;2022-08-30T14:25:53;2.17;;;1.70;;
28335;SDS011;15592;53.656;7.276;2022-08-30T14:28:19;3.55;;;1.80;;
28335;SDS011;15592;53.656;7.276;2022-08-30T14:30:45;5.55;;;2.00;;
28335;SDS011;15592;53.656;7.276;2022-08-30T14:33:11;2.63;;;1.63;;
28335;SDS011;15592;53.656;7.276;2022-08-30T14:35:37;3.88;;;1.90;;
28335;SDS011;15592;53.656;7.276;2022-08-30T14:38:02;2.40;;;1.63;;
28335;SDS011;15592;53.656;7.276;2022-08-30T14:40:29;2.53;;;1.83;;
28335;SDS011;15592;53.656;7.276;2022-08-30T14:42:54;3.78;;;1.75;;
28335;SDS011;15592;53.656;7.276;2022-08-30T14:45:20;2.92;;;1.80;;
28335;SDS011;15592;53.656;7.276;2022-08-30T14:47:46;2.47;;;1.70;;
28335;SDS011;15592;53.656;7.276;2022-08-30T14:50:11;2.17;;;1.50;;
28335;SDS011;15592;53.656;7.276;2022-08-30T14:52:37;2.22;;;1.52;;
28335;SDS011;15592;53.656;7.276;2022-08-30T14:55:04;4.55;;;1.80;;
28335;SDS011;15592;53.656;7.276;2022-08-30T14:57:32;3.80;;;1.67;;
28335;SDS011;15592;53.656;7.276;2022-08-30T14:59:57;2.50;;;1.60;;
28335;SDS011;15592;53.656;7.276;2022-08-30T15:02:23;3.85;;;1.70;;
28335;SDS011;15592;53.656;7.276;2022-08-30T15:04:49;3.38;;;1.50;;
28335;SDS011;15592;53.656;7.276;2022-08-30T15:07:14;1.77;;;1.30;;
28335;SDS011;15592;53.656;7.276;2022-08-30T15:09:43;1.98;;;1.20;;
28335;SDS011;15592;53.656;7.276;2022-08-30T15:12:08;2.65;;;1.20;;
28335;SDS011;15592;53.656;7.276;2022-08-30T15:14:34;2.45;;;1.40;;
28335;SDS011;15592;53.656;7.276;2022-08-30T15:17:00;2.83;;;1.40;;
28335;SDS011;15592;53.656;7.276;2022-08-30T15:19:29;1.90;;;1.25;;
28335;SDS011;15592;53.656;7.276;2022-08-30T15:21:58;1.48;;;1.00;;
28335;SDS011;15592;53.656;7.276;2022-08-30T15:24:25;4.22;;;1.20;;
28335;SDS011;15592;53.656;7.276;2022-08-30T15:26:51;1.35;;;1.25;;
28335;SDS011;15592;53.656;7.276;2022-08-30T15:29:17;2.70;;;1.30;;
28335;SDS011;15592;53.656;7.276;2022-08-30T15:31:44;3.00;;;1.20;;
28335;SDS011;15592;53.656;7.276;2022-08-30T15:34:13;2.08;;;1.00;;
28335;SDS011;15592;53.656;7.276;2022-08-30T15:36:41;2.85;;;1.40;;
28335;SDS011;15592;53.656;7.276;2022-08-30T15:39:07;1.52;;;1.00;;
28335;SDS011;15592;53.656;7.276;2022-08-30T15:41:36;2.40;;;1.25;;
28335;SDS011;15592;53.656;7.276;2022-08-30T15:44:03;5.00;;;1.35;;
28335;SDS011;15592;53.656;7.276;2022-08-30T15:46:29;1.55;;;1.10;;
28335;SDS011;15592;53.656;7.276;2022-08-30T15:49:04;1.63;;;0.88;;
28335;SDS011;15592;53.656;7.276;2022-08-30T15:51:33;2.13;;;1.00;;
28335;SDS011;15592;53.656;7.276;2022-08-30T15:54:00;1.35;;;1.17;;
28335;SDS011;15592;53.656;7.276;2022-08-30T15:56:27;1.67;;;1.17;;
28335;SDS011;15592;53.656;7.276;2022-08-30T15:58:53;3.33;;;0.98;;
28335;SDS011;15592;53.656;7.276;2022-08-30T16:01:19;1.35;;;0.98;;
28335;SDS011;15592;53.656;7.276;2022-08-30T16:03:45;1.83;;;1.20;;
28335;SDS011;15592;53.656;7.276;2022-08-30T16:06:12;2.03;;;1.00;;
28335;SDS011;15592;53.656;7.276;2022-08-30T16:08:42;2.53;;;1.17;;
28335;SDS011;15592;53.656;7.276;2022-08-30T16:11:09;1.50;;;0.95;;
28335;SDS011;15592;53.656;7.276;2022-08-30T16:13:37;0.70;;;0.70;;
28335;SDS011;15592;53.656;7.276;2022-08-30T16:16:03;1.20;;;1.00;;
28335;SDS011;15592;53.656;7.276;2022-08-30T16:18:30;1.52;;;1.08;;
28335;SDS011;15592;53.656;7.276;2022-08-30T16:21:07;2.38;;;1.17;;
28335;SDS011;15592;53.656;7.276;2022-08-30T16:26:03;2.75;;;1.27;;
28335;SDS011;15592;53.656;7.276;2022-08-30T16:28:29;1.30;;;1.20;;
28335;SDS011;15592;53.656;7.276;2022-08-30T16:30:55;2.85;;;1.05;;
28335;SDS011;15592;53.656;7.276;2022-08-30T16:33:21;3.13;;;0.90;;
28335;SDS011;15592;53.656;7.276;2022-08-30T16:35:50;1.67;;;1.17;;